createdAt,value
2016-02-07T00:01:42.127Z,0
2016-02-07T00:02:40.909Z,0
2016-02-07T00:02:59.849Z,0
2016-02-07T00:03:57.101Z,0
2016-02-07T00:05:26.151Z,0
2016-02-07T00:06:16.623Z,0
2016-02-07T00:07:34.843Z,0
2016-02-07T00:08:11.378Z,0
2016-02-07T00:10:00.619Z,0
2016-02-07T00:10:21.994Z,0
2016-02-07T00:12:17.937Z,0
2016-02-07T00:12:33.905Z,0
2016-02-07T00:13:32.486Z,0
2016-02-07T00:14:48.258Z,0
2016-02-07T00:15:51.620Z,0
2016-02-07T00:16:37.265Z,0
2016-02-07T00:18:33.864Z,0
2016-02-07T00:19:12.351Z,0
2016-02-07T00:19:46.729Z,0
2016-02-07T00:21:44.327Z,0
2016-02-07T00:21:56.892Z,0
2016-02-07T00:23:28.270Z,0
2016-02-07T00:24:12.163Z,0
2016-02-07T00:25:12.183Z,0
2016-02-07T00:26:24.937Z,0
2016-02-07T00:27:18.502Z,0
2016-02-07T00:29:21.868Z,0
2016-02-07T00:30:41.094Z,0
2016-02-07T00:31:22.503Z,0
2016-02-07T00:32:53.275Z,0
2016-02-07T00:34:02.825Z,0
2016-02-07T00:34:37.186Z,0
2016-02-07T00:36:08.519Z,0
2016-02-07T00:36:38.878Z,0
2016-02-07T00:38:56.543Z,0
2016-02-07T00:39:37.980Z,0
2016-02-07T00:41:34.972Z,0
2016-02-07T00:41:47.550Z,0
2016-02-07T00:42:47.554Z,0
2016-02-07T00:43:53.857Z,0
2016-02-07T00:45:00.360Z,0
2016-02-07T00:46:00.488Z,0
2016-02-07T00:46:47.675Z,0
2016-02-07T00:48:01.868Z,0
2016-02-07T00:49:19.058Z,0
2016-02-07T00:50:10.013Z,0
2016-02-07T00:51:23.015Z,0
2016-02-07T00:52:06.941Z,0
2016-02-07T00:53:26.120Z,0
2016-02-07T00:54:16.326Z,0
2016-02-07T00:55:10.015Z,0
2016-02-07T00:56:22.925Z,0
2016-02-07T00:57:10.865Z,0
2016-02-07T00:58:29.305Z,0
2016-02-07T00:59:22.870Z,0
2016-02-07T01:00:35.889Z,0
2016-02-07T01:01:29.376Z,0
2016-02-07T01:02:41.535Z,0
2016-02-07T01:04:07.229Z,0
2016-02-07T01:04:39.041Z,0
2016-02-07T01:05:19.873Z,0
2016-02-07T01:06:47.032Z,0
2016-02-07T01:07:26.174Z,0
2016-02-07T01:08:45.603Z,0
2016-02-07T01:09:20.027Z,0
2016-02-07T01:10:19.999Z,0
2016-02-07T01:11:20.205Z,0
2016-02-07T01:12:20.036Z,0
2016-02-07T01:13:21.508Z,0
2016-02-07T01:14:32.854Z,0
2016-02-07T01:15:20.747Z,0
2016-02-07T01:16:20.155Z,0
2016-02-07T01:17:20.176Z,0
2016-02-07T01:18:20.257Z,0
2016-02-07T01:19:20.259Z,0
2016-02-07T01:20:33.090Z,0
2016-02-07T01:21:20.906Z,0
2016-02-07T01:22:45.987Z,0
2016-02-07T01:23:26.677Z,0
2016-02-07T01:24:20.368Z,0
2016-02-07T01:25:21.027Z,0
2016-02-07T01:26:21.060Z,0
2016-02-07T01:27:20.470Z,0
2016-02-07T01:28:20.518Z,0
2016-02-07T01:29:20.929Z,0
2016-02-07T01:30:21.166Z,0
2016-02-07T01:31:20.778Z,0
2016-02-07T01:33:23.737Z,0
2016-02-07T01:34:49.410Z,0
2016-02-07T01:35:33.321Z,0
2016-02-07T01:36:59.135Z,0
2016-02-07T01:37:40.236Z,0
2016-02-07T01:38:59.066Z,0
2016-02-07T01:39:52.616Z,0
2016-02-07T01:41:05.013Z,0
2016-02-07T01:43:14.174Z,0
2016-02-07T01:43:43.018Z,0
2016-02-07T01:45:49.257Z,0
2016-02-07T01:46:44.401Z,0
2016-02-07T01:47:55.746Z,0
2016-02-07T01:48:43.109Z,0
2016-02-07T01:50:46.209Z,0
2016-02-07T01:51:46.274Z,0
2016-02-07T01:52:59.042Z,0
2016-02-07T01:53:59.061Z,0
2016-02-07T01:55:05.550Z,0
2016-02-07T01:56:05.571Z,0
2016-02-07T01:57:12.120Z,0
2016-02-07T01:58:12.107Z,0
2016-02-07T01:58:55.983Z,0
2016-02-07T01:59:56.049Z,0
2016-02-07T02:01:27.351Z,0
2016-02-07T02:01:56.148Z,0
2016-02-07T02:02:56.104Z,0
2016-02-07T02:03:56.709Z,0
2016-02-07T02:04:56.120Z,0
2016-02-07T02:06:08.892Z,0
2016-02-07T02:07:08.880Z,0
2016-02-07T02:08:08.888Z,0
2016-02-07T02:09:15.418Z,0
2016-02-07T02:09:56.261Z,0
2016-02-07T02:10:56.212Z,0
2016-02-07T02:11:56.849Z,0
2016-02-07T02:12:56.924Z,0
2016-02-07T02:13:56.923Z,0
2016-02-07T02:14:56.316Z,0
2016-02-07T02:16:09.083Z,0
2016-02-07T02:16:56.973Z,0
2016-02-07T02:17:56.443Z,0
2016-02-07T02:18:56.288Z,0
2016-02-07T02:19:57.055Z,0
2016-02-07T02:20:56.479Z,0
2016-02-07T02:21:57.155Z,0
2016-02-07T02:22:56.563Z,0
2016-02-07T02:23:56.801Z,0
2016-02-07T02:24:56.415Z,0
2016-02-07T02:25:57.229Z,0
2016-02-07T02:27:09.439Z,0
2016-02-07T02:28:15.883Z,0
2016-02-07T02:28:57.279Z,0
2016-02-07T02:29:58.330Z,0
2016-02-07T02:30:57.098Z,0
2016-02-07T02:32:09.525Z,0
2016-02-07T02:32:58.243Z,0
2016-02-07T02:35:06.187Z,0
2016-02-07T02:35:59.956Z,0
2016-02-07T02:37:00.036Z,0
2016-02-07T02:38:00.007Z,0
2016-02-07T02:39:00.042Z,0
2016-02-07T02:40:06.357Z,0
2016-02-07T02:41:12.909Z,0
2016-02-07T02:42:00.143Z,0
2016-02-07T02:43:00.119Z,0
2016-02-07T02:44:06.451Z,0
2016-02-07T02:45:00.250Z,0
2016-02-07T02:46:12.990Z,0
2016-02-07T02:47:12.978Z,0
2016-02-07T02:48:00.275Z,0
2016-02-07T02:49:00.340Z,0
2016-02-07T02:50:13.095Z,0
2016-02-07T02:51:01.002Z,0
2016-02-07T02:52:00.412Z,0
2016-02-07T02:53:01.895Z,0
2016-02-07T02:54:13.181Z,0
2016-02-07T02:55:19.684Z,0
2016-02-07T02:56:26.202Z,0
2016-02-07T02:57:26.313Z,0
2016-02-07T02:58:31.864Z,0
2016-02-07T02:59:00.632Z,0
2016-02-07T03:00:00.790Z,0
2016-02-07T03:01:00.699Z,0
2016-02-07T03:02:00.686Z,0
2016-02-07T03:03:13.489Z,0
2016-02-07T03:04:00.817Z,0
2016-02-07T03:05:19.953Z,0
2016-02-07T03:06:00.999Z,0
2016-02-07T03:07:00.799Z,0
2016-02-07T03:08:00.833Z,0
2016-02-07T03:09:07.133Z,0
2016-02-07T03:10:00.964Z,0
2016-02-07T03:11:00.951Z,0
2016-02-07T03:12:13.693Z,0
2016-02-07T03:13:01.084Z,0
2016-02-07T03:14:13.746Z,0
2016-02-07T03:15:20.248Z,0
2016-02-07T03:16:20.267Z,0
2016-02-07T03:18:23.757Z,0
2016-02-07T03:18:36.367Z,0
2016-02-07T03:19:36.369Z,0
2016-02-07T03:20:36.466Z,0
2016-02-07T03:21:43.315Z,0
2016-02-07T03:22:36.505Z,0
2016-02-07T03:23:36.508Z,0
2016-02-07T03:24:49.260Z,0
2016-02-07T03:25:36.545Z,0
2016-02-07T03:26:55.891Z,0
2016-02-07T03:27:39.753Z,0
2016-02-07T03:28:58.975Z,0
2016-02-07T03:29:46.103Z,0
2016-02-07T03:30:39.901Z,0
2016-02-07T03:31:39.936Z,0
2016-02-07T03:32:39.910Z,0
2016-02-07T03:33:39.913Z,0
2016-02-07T03:34:40.009Z,0
2016-02-07T03:35:40.028Z,0
2016-02-07T03:36:40.030Z,0
2016-02-07T03:37:46.331Z,0
2016-02-07T03:38:40.161Z,0
2016-02-07T03:39:40.117Z,0
2016-02-07T03:40:41.604Z,0
2016-02-07T03:41:46.467Z,0
2016-02-07T03:42:43.235Z,0
2016-02-07T03:43:40.301Z,0
2016-02-07T03:44:52.975Z,0
2016-02-07T03:45:53.010Z,0
2016-02-07T03:46:53.012Z,0
2016-02-07T03:47:40.313Z,0
2016-02-07T03:48:59.580Z,0
2016-02-07T03:49:40.382Z,0
2016-02-07T03:50:40.384Z,0
2016-02-07T03:51:53.168Z,0
2016-02-07T03:52:40.500Z,0
2016-02-07T03:53:59.752Z,0
2016-02-07T03:54:49.880Z,0
2016-02-07T03:55:43.664Z,0
2016-02-07T03:56:43.760Z,0
2016-02-07T03:57:43.700Z,0
2016-02-07T03:58:43.734Z,0
2016-02-07T03:59:56.518Z,0
2016-02-07T04:00:43.803Z,0
2016-02-07T04:01:43.824Z,0
2016-02-07T04:02:50.108Z,0
2016-02-07T04:03:50.141Z,0
2016-02-07T04:04:56.675Z,0
2016-02-07T04:05:45.318Z,0
2016-02-07T04:07:03.165Z,0
2016-02-07T04:07:45.247Z,0
2016-02-07T04:08:44.045Z,0
2016-02-07T04:09:45.454Z,0
2016-02-07T04:10:44.082Z,0
2016-02-07T04:11:56.866Z,0
2016-02-07T04:12:44.197Z,0
2016-02-07T04:14:03.449Z,0
2016-02-07T04:14:45.608Z,0
2016-02-07T04:15:44.204Z,0
2016-02-07T04:16:57.005Z,0
2016-02-07T04:17:44.100Z,0
2016-02-07T04:18:44.290Z,0
2016-02-07T04:19:44.309Z,0
2016-02-07T04:22:09.705Z,0
2016-02-07T04:22:53.599Z,0
2016-02-07T04:23:53.617Z,0
2016-02-07T04:25:06.432Z,0
2016-02-07T04:25:53.669Z,0
2016-02-07T04:27:19.471Z,0
2016-02-07T04:28:06.471Z,0
2016-02-07T04:28:53.803Z,0
2016-02-07T04:29:53.773Z,0
2016-02-07T04:31:00.089Z,0
2016-02-07T04:31:53.842Z,0
2016-02-07T04:34:00.128Z,0
2016-02-07T04:34:57.022Z,0
2016-02-07T04:36:03.242Z,0
2016-02-07T04:36:57.111Z,0
2016-02-07T04:37:57.191Z,0
2016-02-07T04:39:03.412Z,0
2016-02-07T04:39:57.368Z,0
2016-02-07T04:41:10.033Z,0
2016-02-07T04:42:16.445Z,0
2016-02-07T04:42:57.383Z,0
2016-02-07T04:43:57.275Z,0
2016-02-07T04:44:57.419Z,0
2016-02-07T04:45:57.344Z,0
2016-02-07T04:46:57.383Z,0
2016-02-07T04:48:08.933Z,0
2016-02-07T04:49:00.935Z,0
2016-02-07T04:50:23.566Z,0
2016-02-07T04:51:08.378Z,0
2016-02-07T04:52:33.180Z,0
2016-02-07T04:53:20.402Z,0
2016-02-07T04:54:07.746Z,0
2016-02-07T04:55:07.779Z,0
2016-02-07T04:56:08.547Z,0
2016-02-07T04:57:15.400Z,0
2016-02-07T04:58:09.556Z,0
2016-02-07T04:59:23.749Z,0
2016-02-07T05:00:23.033Z,0
2016-02-07T05:01:40.707Z,0
2016-02-07T05:02:39.414Z,0
2016-02-07T05:04:55.169Z,0
2016-02-07T05:05:29.125Z,0
2016-02-07T05:06:46.675Z,0
2016-02-07T05:07:42.147Z,0
2016-02-07T05:08:35.665Z,0
2016-02-07T05:10:26.391Z,0
2016-02-07T05:11:00.610Z,0
2016-02-07T05:11:53.238Z,0
2016-02-07T05:12:54.990Z,0
2016-02-07T05:13:40.711Z,0
2016-02-07T05:14:43.729Z,0
2016-02-07T05:15:41.891Z,0
2016-02-07T05:16:54.559Z,0
2016-02-07T05:17:53.827Z,0
2016-02-07T05:18:49.736Z,0
2016-02-07T05:19:48.724Z,0
2016-02-07T05:20:41.117Z,0
2016-02-07T05:21:44.901Z,0
2016-02-07T05:23:01.576Z,0
2016-02-07T05:23:48.282Z,0
2016-02-07T05:24:47.801Z,0
2016-02-07T05:26:06.147Z,0
2016-02-07T05:27:17.152Z,0
2016-02-07T05:28:17.764Z,0
2016-02-07T05:28:51.639Z,0
2016-02-07T05:30:21.895Z,0
2016-02-07T05:31:00.255Z,0
2016-02-07T05:33:01.463Z,0
2016-02-07T05:33:16.872Z,0
2016-02-07T05:35:21.205Z,0
2016-02-07T05:35:36.205Z,0
2016-02-07T05:36:37.787Z,0
2016-02-07T05:38:32.949Z,0
2016-02-07T05:39:24.638Z,0
2016-02-07T05:42:16.807Z,0
2016-02-07T05:42:36.667Z,0
2016-02-07T05:43:47.607Z,0
2016-02-07T05:44:38.612Z,0
2016-02-07T05:46:04.083Z,0
2016-02-07T05:48:29.294Z,0
2016-02-07T05:49:03.653Z,0
2016-02-07T05:50:03.737Z,0
2016-02-07T05:51:16.443Z,0
2016-02-07T05:52:03.758Z,0
2016-02-07T05:53:22.967Z,0
2016-02-07T05:54:32.547Z,0
2016-02-07T05:58:00.525Z,0
2016-02-07T05:59:00.544Z,0
2016-02-07T06:00:07.203Z,0
2016-02-07T06:01:19.145Z,0
2016-02-07T06:02:07.677Z,0
2016-02-07T06:03:13.664Z,0
2016-02-07T06:04:23.217Z,0
2016-02-07T06:04:57.732Z,0
2016-02-07T06:05:57.579Z,0
2016-02-07T06:06:57.617Z,0
2016-02-07T06:07:57.652Z,0
2016-02-07T06:09:10.436Z,0
2016-02-07T06:09:57.704Z,0
2016-02-07T06:11:16.913Z,0
2016-02-07T06:11:57.760Z,0
2016-02-07T06:14:01.031Z,0
2016-02-07T06:14:13.609Z,0
2016-02-07T06:17:38.324Z,0
2016-02-07T06:17:50.871Z,0
2016-02-07T06:19:49.313Z,0
2016-02-07T06:20:01.923Z,0
2016-02-07T06:21:01.926Z,0
2016-02-07T06:22:01.976Z,0
2016-02-07T06:23:14.759Z,0
2016-02-07T06:24:02.762Z,0
2016-02-07T06:25:21.236Z,0
2016-02-07T06:26:09.767Z,0
2016-02-07T06:30:24.437Z,0
2016-02-07T06:31:34.018Z,0
2016-02-07T06:33:59.259Z,0
2016-02-07T06:34:59.293Z,0
2016-02-07T06:35:59.311Z,4
2016-02-07T06:37:05.644Z,4
2016-02-07T06:37:59.536Z,0
2016-02-07T06:39:12.164Z,0
2016-02-07T06:40:00.839Z,4
2016-02-07T06:41:18.655Z,0
2016-02-07T06:42:02.532Z,4
2016-02-07T06:43:30.820Z,8
2016-02-07T06:44:03.992Z,4
2016-02-07T06:45:59.591Z,8
2016-02-07T06:46:12.216Z,8
2016-02-07T06:48:09.175Z,12
2016-02-07T06:48:40.990Z,12
2016-02-07T06:49:44.072Z,16
2016-02-07T06:50:24.872Z,16
2016-02-07T06:53:00.159Z,24
2016-02-07T06:54:09.694Z,28
2016-02-07T06:56:12.449Z,36
2016-02-07T06:56:50.748Z,40
2016-02-07T06:57:25.094Z,40
2016-02-07T06:59:27.726Z,48
2016-02-07T06:59:59.523Z,52
2016-02-07T07:00:40.463Z,56
2016-02-07T07:02:06.028Z,64
2016-02-07T07:03:15.562Z,64
2016-02-07T07:04:09.195Z,72
2016-02-07T07:05:21.294Z,80
2016-02-07T07:06:09.295Z,80
2016-02-07T07:08:15.738Z,100
2016-02-07T07:08:50.131Z,100
2016-02-07T07:11:05.497Z,92
2016-02-07T07:12:05.469Z,88
2016-02-07T07:13:18.205Z,92
2016-02-07T07:14:05.708Z,96
2016-02-07T07:15:24.766Z,104
2016-02-07T07:16:18.422Z,124
2016-02-07T07:17:36.927Z,152
2016-02-07T07:18:31.305Z,168
2016-02-07T07:20:37.017Z,200
2016-02-07T07:21:05.720Z,208
2016-02-07T07:22:05.738Z,220
2016-02-07T07:23:05.772Z,224
2016-02-07T07:24:05.810Z,204
2016-02-07T07:25:06.219Z,188
2016-02-07T07:26:06.659Z,188
2016-02-07T07:27:12.428Z,192
2016-02-07T07:28:06.041Z,176
2016-02-07T07:29:06.199Z,164
2016-02-07T07:30:06.062Z,160
2016-02-07T07:31:06.127Z,156
2016-02-07T07:32:06.040Z,156
2016-02-07T07:33:06.152Z,176
2016-02-07T07:34:06.077Z,216
2016-02-07T07:35:06.141Z,260
2016-02-07T07:36:06.268Z,268
2016-02-07T07:37:06.179Z,268
2016-02-07T07:38:06.228Z,256
2016-02-07T07:39:06.277Z,264
2016-02-07T07:40:06.281Z,264
2016-02-07T07:41:06.283Z,248
2016-02-07T07:42:06.302Z,184
2016-02-07T07:43:06.352Z,152
2016-02-07T07:44:06.370Z,132
2016-02-07T07:45:06.377Z,120
2016-02-07T07:46:06.412Z,116
2016-02-07T07:47:06.501Z,108
2016-02-07T07:48:06.471Z,108
2016-02-07T07:49:06.521Z,112
2016-02-07T07:50:06.524Z,108
2016-02-07T07:51:06.557Z,112
2016-02-07T07:52:06.576Z,120
2016-02-07T07:53:06.611Z,124
2016-02-07T07:54:06.645Z,140
2016-02-07T07:55:06.648Z,164
2016-02-07T07:56:06.712Z,204
2016-02-07T07:57:06.732Z,256
2016-02-07T07:58:06.749Z,300
2016-02-07T07:59:06.798Z,316
2016-02-07T08:00:06.832Z,332
2016-02-07T08:01:06.852Z,292
2016-02-07T08:02:06.886Z,268
2016-02-07T08:03:06.889Z,320
2016-02-07T08:04:06.923Z,352
2016-02-07T08:05:07.019Z,368
2016-02-07T08:06:06.991Z,360
2016-02-07T08:07:07.011Z,348
2016-02-07T08:08:07.060Z,296
2016-02-07T08:09:07.218Z,264
2016-02-07T08:10:07.080Z,248
2016-02-07T08:11:07.176Z,260
2016-02-07T08:12:08.602Z,240
2016-02-07T08:13:08.574Z,196
2016-02-07T08:14:07.361Z,176
2016-02-07T08:15:07.379Z,176
2016-02-07T08:16:07.353Z,180
2016-02-07T08:17:07.402Z,200
2016-02-07T08:18:07.592Z,208
2016-02-07T08:19:07.360Z,216
2016-02-07T08:20:07.584Z,240
2016-02-07T08:21:07.446Z,292
2016-02-07T08:22:07.574Z,340
2016-02-07T08:23:07.467Z,416
2016-02-07T08:24:07.579Z,528
2016-02-07T08:25:07.503Z,604
2016-02-07T08:26:07.601Z,700
2016-02-07T08:27:07.778Z,728
2016-02-07T08:28:07.593Z,688
2016-02-07T08:29:07.689Z,668
2016-02-07T08:30:07.645Z,760
2016-02-07T08:31:07.772Z,904
2016-02-07T08:32:07.745Z,956
2016-02-07T08:33:07.763Z,1000
2016-02-07T08:34:07.782Z,1052
2016-02-07T08:35:07.800Z,1084
2016-02-07T08:36:07.819Z,1076
2016-02-07T08:37:07.713Z,1060
2016-02-07T08:38:07.903Z,1080
2016-02-07T08:39:07.921Z,1140
2016-02-07T08:40:09.361Z,1172
2016-02-07T08:41:07.976Z,1176
2016-02-07T08:42:08.011Z,1128
2016-02-07T08:43:08.029Z,1092
2016-02-07T08:44:08.077Z,1112
2016-02-07T08:45:08.080Z,1120
2016-02-07T08:46:08.103Z,1132
2016-02-07T08:47:08.250Z,1144
2016-02-07T08:48:08.175Z,1168
2016-02-07T08:49:08.224Z,1204
2016-02-07T08:50:08.243Z,1256
2016-02-07T08:51:08.340Z,1312
2016-02-07T08:52:08.279Z,1360
2016-02-07T08:53:08.329Z,1376
2016-02-07T08:54:08.333Z,1360
2016-02-07T08:55:08.382Z,1312
2016-02-07T08:56:08.389Z,1280
2016-02-07T08:57:08.439Z,1216
2016-02-07T08:58:08.456Z,1112
2016-02-07T08:59:08.522Z,1072
2016-02-07T09:00:08.524Z,1084
2016-02-07T09:01:08.589Z,1116
2016-02-07T09:02:21.293Z,1064
2016-02-07T09:03:08.578Z,1040
2016-02-07T09:04:08.643Z,1080
2016-02-07T09:05:08.677Z,1308
2016-02-07T09:06:08.695Z,1364
2016-02-07T09:07:08.761Z,1404
2016-02-07T09:08:08.747Z,1456
2016-02-07T09:09:08.891Z,1528
2016-02-07T09:10:08.814Z,1588
2016-02-07T09:11:08.834Z,1580
2016-02-07T09:12:21.602Z,1512
2016-02-07T09:13:15.167Z,1472
2016-02-07T09:14:08.875Z,1460
2016-02-07T09:15:10.456Z,1564
2016-02-07T09:16:08.959Z,1572
2016-02-07T09:17:08.994Z,1412
2016-02-07T09:18:09.029Z,1372
2016-02-07T09:19:09.079Z,1608
2016-02-07T09:20:09.086Z,1700
2016-02-07T09:21:08.605Z,1524
2016-02-07T09:22:09.185Z,1536
2016-02-07T09:23:09.159Z,1248
2016-02-07T09:24:09.208Z,1080
2016-02-07T09:25:09.226Z,1064
2016-02-07T09:26:09.308Z,1088
2016-02-07T09:27:09.311Z,1068
2016-02-07T09:28:22.020Z,1156
2016-02-07T09:29:09.366Z,1284
2016-02-07T09:30:22.088Z,1196
2016-02-07T09:31:09.371Z,1068
2016-02-07T09:32:09.437Z,1164
2016-02-07T09:33:16.319Z,1184
2016-02-07T09:34:10.102Z,1200
2016-02-07T09:35:09.527Z,1344
2016-02-07T09:36:09.534Z,1200
2016-02-07T09:37:09.599Z,1004
2016-02-07T09:38:10.195Z,948
2016-02-07T09:39:09.635Z,1024
2016-02-07T09:40:09.841Z,1092
2016-02-07T09:41:09.704Z,976
2016-02-07T09:42:09.815Z,972
2016-02-07T09:43:09.739Z,1004
2016-02-07T09:44:09.790Z,1000
2016-02-07T09:45:12.839Z,912
2016-02-07T09:46:10.046Z,912
2016-02-07T09:47:09.845Z,924
2016-02-07T09:48:09.895Z,900
2016-02-07T09:49:22.790Z,832
2016-02-07T09:50:10.029Z,884
2016-02-07T09:51:29.187Z,980
2016-02-07T09:52:09.987Z,1020
2016-02-07T09:53:10.051Z,1144
2016-02-07T09:54:10.039Z,1476
2016-02-07T09:55:10.103Z,1292
2016-02-07T09:56:10.122Z,1372
2016-02-07T09:57:10.173Z,1172
2016-02-07T09:58:10.176Z,1076
2016-02-07T09:59:10.210Z,1208
2016-02-07T10:00:10.338Z,1240
2016-02-07T10:01:10.246Z,1324
2016-02-07T10:02:10.141Z,1372
2016-02-07T10:03:10.285Z,1348
2016-02-07T10:04:10.349Z,1336
2016-02-07T10:05:10.353Z,1276
2016-02-07T10:06:10.747Z,1320
2016-02-07T10:07:10.546Z,1652
2016-02-07T10:08:10.548Z,1888
2016-02-07T10:09:10.566Z,2040
2016-02-07T10:10:10.523Z,1528
2016-02-07T10:11:10.401Z,1088
2016-02-07T10:12:10.575Z,1136
2016-02-07T10:13:10.656Z,1264
2016-02-07T10:14:10.643Z,1444
2016-02-07T10:15:17.147Z,1508
2016-02-07T10:16:10.711Z,1260
2016-02-07T10:17:23.464Z,1108
2016-02-07T10:18:10.733Z,1572
2016-02-07T10:19:10.788Z,1700
2016-02-07T10:20:10.965Z,1476
2016-02-07T10:21:10.876Z,1640
2016-02-07T10:22:10.863Z,1728
2016-02-07T10:23:10.900Z,1664
2016-02-07T10:24:10.949Z,1516
2016-02-07T10:25:10.936Z,1344
2016-02-07T10:26:11.033Z,1132
2016-02-07T10:27:10.989Z,1364
2016-02-07T10:28:11.069Z,1136
2016-02-07T10:29:11.058Z,720
2016-02-07T10:30:11.279Z,584
2016-02-07T10:31:11.173Z,488
2016-02-07T10:32:11.160Z,468
2016-02-07T10:33:11.304Z,536
2016-02-07T10:34:11.197Z,460
2016-02-07T10:35:11.263Z,436
2016-02-07T10:36:11.250Z,532
2016-02-07T10:37:11.315Z,788
2016-02-07T10:38:11.302Z,856
2016-02-07T10:39:11.217Z,856
2016-02-07T10:40:11.375Z,696
2016-02-07T10:41:11.409Z,800
2016-02-07T10:42:11.442Z,704
2016-02-07T10:43:11.476Z,712
2016-02-07T10:44:11.652Z,584
2016-02-07T10:45:11.545Z,512
2016-02-07T10:46:11.564Z,480
2016-02-07T10:47:11.598Z,528
2016-02-07T10:48:11.616Z,608
2016-02-07T10:49:11.884Z,700
2016-02-07T10:50:11.668Z,828
2016-02-07T10:51:11.720Z,1040
2016-02-07T10:52:11.710Z,1232
2016-02-07T10:53:18.120Z,1336
2016-02-07T10:54:24.528Z,1568
2016-02-07T10:55:11.812Z,1440
2016-02-07T10:56:11.878Z,2104
2016-02-07T10:57:11.895Z,2804
2016-02-07T10:58:11.899Z,3048
2016-02-07T10:59:11.917Z,3084
2016-02-07T11:00:11.968Z,2928
2016-02-07T11:01:11.970Z,2828
2016-02-07T11:02:12.067Z,2580
2016-02-07T11:03:12.037Z,2452
2016-02-07T11:04:12.134Z,2396
2016-02-07T11:05:12.106Z,2344
2016-02-07T11:06:12.172Z,2408
2016-02-07T11:07:12.159Z,2592
2016-02-07T11:08:24.912Z,2460
2016-02-07T11:09:12.242Z,2548
2016-02-07T11:10:12.219Z,2380
2016-02-07T11:11:12.257Z,2300
2016-02-07T11:12:12.247Z,2236
2016-02-07T11:13:12.331Z,2200
2016-02-07T11:14:12.305Z,2380
2016-02-07T11:15:12.334Z,2536
2016-02-07T11:16:12.332Z,2620
2016-02-07T11:17:12.393Z,2476
2016-02-07T11:18:12.422Z,2324
2016-02-07T11:19:12.423Z,2204
2016-02-07T11:20:12.521Z,2116
2016-02-07T11:21:12.491Z,1988
2016-02-07T11:22:12.555Z,1976
2016-02-07T11:23:12.509Z,2036
2016-02-07T11:24:12.652Z,1908
2016-02-07T11:25:12.606Z,1852
2016-02-07T11:26:12.592Z,1840
2016-02-07T11:27:12.642Z,1868
2016-02-07T11:28:12.675Z,1928
2016-02-07T11:29:12.692Z,1956
2016-02-07T11:30:12.711Z,1908
2016-02-07T11:31:12.745Z,1896
2016-02-07T11:32:12.809Z,1884
2016-02-07T11:33:12.874Z,2272
2016-02-07T11:34:25.564Z,2336
2016-02-07T11:35:12.974Z,2328
2016-02-07T11:36:12.898Z,2104
2016-02-07T11:37:12.963Z,2232
2016-02-07T11:38:12.950Z,2164
2016-02-07T11:39:12.968Z,1996
2016-02-07T11:40:12.989Z,2224
2016-02-07T11:41:13.007Z,2424
2016-02-07T11:42:13.072Z,2436
2016-02-07T11:43:13.090Z,2376
2016-02-07T11:44:13.265Z,1972
2016-02-07T11:45:13.158Z,1748
2016-02-07T11:46:13.318Z,1760
2016-02-07T11:47:13.226Z,1776
2016-02-07T11:48:13.261Z,1968
2016-02-07T11:49:13.278Z,2116
2016-02-07T11:50:13.328Z,2248
2016-02-07T11:51:13.347Z,2260
2016-02-07T11:52:14.881Z,2388
2016-02-07T11:53:13.463Z,2684
2016-02-07T11:54:13.435Z,2332
2016-02-07T11:55:13.578Z,1924
2016-02-07T11:56:13.471Z,1736
2016-02-07T11:57:13.630Z,1628
2016-02-07T11:58:13.632Z,1632
2016-02-07T11:59:13.604Z,1600
2016-02-07T12:00:13.655Z,1616
2016-02-07T12:01:13.673Z,1544
2016-02-07T12:02:13.707Z,1468
2016-02-07T12:03:13.725Z,1532
2016-02-07T12:04:13.759Z,1484
2016-02-07T12:05:13.747Z,1492
2016-02-07T12:06:13.816Z,1424
2016-02-07T12:07:13.788Z,1464
2016-02-07T12:08:13.837Z,1640
2016-02-07T12:09:13.872Z,1632
2016-02-07T12:10:13.890Z,1692
2016-02-07T12:11:14.032Z,1768
2016-02-07T12:12:20.270Z,1824
2016-02-07T12:13:14.304Z,1836
2016-02-07T12:14:13.996Z,1868
2016-02-07T12:15:14.061Z,1876
2016-02-07T12:16:14.485Z,1896
2016-02-07T12:17:14.097Z,1928
2016-02-07T12:18:14.146Z,1960
2016-02-07T12:19:26.900Z,1976
2016-02-07T12:20:14.199Z,2008
2016-02-07T12:21:14.217Z,2004
2016-02-07T12:22:14.345Z,1996
2016-02-07T12:23:14.256Z,1956
2016-02-07T12:24:14.362Z,1924
2016-02-07T12:25:14.366Z,1888
2016-02-07T12:26:14.229Z,1856
2016-02-07T12:27:14.405Z,1828
2016-02-07T12:28:14.422Z,1768
2016-02-07T12:29:14.441Z,1768
2016-02-07T12:30:14.459Z,1740
2016-02-07T12:31:14.493Z,1704
2016-02-07T12:32:20.808Z,1708
2016-02-07T12:33:14.640Z,1744
2016-02-07T12:34:14.612Z,1856
2016-02-07T12:35:14.712Z,1836
2016-02-07T12:36:14.651Z,1908
2016-02-07T12:37:14.747Z,1928
2016-02-07T12:38:14.720Z,1772
2016-02-07T12:39:27.456Z,1732
2016-02-07T12:40:14.725Z,1744
2016-02-07T12:41:40.746Z,1916
2016-02-07T12:42:14.856Z,1968
2016-02-07T12:43:14.874Z,1952
2016-02-07T12:44:14.126Z,1960
2016-02-07T12:45:14.911Z,2040
2016-02-07T12:46:14.929Z,2084
2016-02-07T12:47:14.948Z,2092
2016-02-07T12:48:14.997Z,2060
2016-02-07T12:49:27.766Z,2052
2016-02-07T12:50:15.065Z,2040
2016-02-07T12:51:15.116Z,1972
2016-02-07T12:52:15.118Z,1932
2016-02-07T12:53:15.137Z,1940
2016-02-07T12:54:15.158Z,1984
2016-02-07T12:55:15.302Z,2040
2016-02-07T12:56:15.259Z,2040
2016-02-07T12:57:15.263Z,2056
2016-02-07T12:58:15.531Z,2004
2016-02-07T12:59:15.315Z,2036
2016-02-07T13:00:15.317Z,2116
2016-02-07T13:01:15.382Z,2124
2016-02-07T13:02:15.496Z,2120
2016-02-07T13:03:15.405Z,2100
2016-02-07T13:04:15.502Z,2072
2016-02-07T13:05:15.488Z,2048
2016-02-07T13:06:15.522Z,2056
2016-02-07T13:07:15.556Z,2028
2016-02-07T13:08:15.590Z,2076
2016-02-07T13:09:15.624Z,2140
2016-02-07T13:10:15.642Z,2176
2016-02-07T13:11:15.660Z,2076
2016-02-07T13:12:15.757Z,2180
2016-02-07T13:13:15.743Z,2156
2016-02-07T13:14:15.746Z,2120
2016-02-07T13:15:15.828Z,2032
2016-02-07T13:16:15.846Z,2008
2016-02-07T13:17:15.973Z,1964
2016-02-07T13:18:15.867Z,1900
2016-02-07T13:19:15.948Z,1860
2016-02-07T13:20:15.920Z,1832
2016-02-07T13:21:15.969Z,1808
2016-02-07T13:22:16.018Z,1796
2016-02-07T13:23:16.006Z,1768
2016-02-07T13:24:16.121Z,1744
2016-02-07T13:25:16.077Z,1732
2016-02-07T13:26:16.271Z,1724
2016-02-07T13:27:16.132Z,1744
2016-02-07T13:28:16.151Z,1748
2016-02-07T13:29:16.184Z,1764
2016-02-07T13:30:16.249Z,1816
2016-02-07T13:31:16.268Z,1840
2016-02-07T13:32:16.301Z,1832
2016-02-07T13:33:16.304Z,1828
2016-02-07T13:34:16.385Z,1788
2016-02-07T13:35:16.420Z,1736
2016-02-07T13:36:16.458Z,1744
2016-02-07T13:37:16.429Z,1776
2016-02-07T13:38:16.478Z,1800
2016-02-07T13:39:16.528Z,1768
2016-02-07T13:40:20.062Z,1696
2016-02-07T13:41:16.534Z,1696
2016-02-07T13:42:16.599Z,1624
2016-02-07T13:43:16.617Z,1608
2016-02-07T13:44:16.668Z,1644
2016-02-07T13:45:16.811Z,1728
2016-02-07T13:46:16.783Z,1712
2016-02-07T13:47:16.817Z,1604
2016-02-07T13:48:16.788Z,1420
2016-02-07T13:49:19.230Z,1452
2016-02-07T13:50:16.827Z,1268
2016-02-07T13:51:16.923Z,1208
2016-02-07T13:52:16.879Z,1120
2016-02-07T13:53:16.975Z,1172
2016-02-07T13:54:16.933Z,1056
2016-02-07T13:55:17.045Z,1156
2016-02-07T13:56:17.031Z,1164
2016-02-07T13:57:29.773Z,1196
2016-02-07T13:58:17.651Z,1248
2016-02-07T13:59:17.122Z,1420
2016-02-07T14:00:17.110Z,1548
2016-02-07T14:01:17.127Z,1632
2016-02-07T14:02:17.177Z,1528
2016-02-07T14:03:17.195Z,1596
2016-02-07T14:04:17.292Z,1680
2016-02-07T14:05:17.263Z,1644
2016-02-07T14:06:17.312Z,1712
2016-02-07T14:07:17.300Z,1752
2016-02-07T14:08:17.428Z,1692
2016-02-07T14:09:17.383Z,1672
2016-02-07T14:10:17.405Z,1636
2016-02-07T14:11:17.471Z,1604
2016-02-07T14:12:17.473Z,1616
2016-02-07T14:13:17.679Z,1664
2016-02-07T14:14:17.526Z,1684
2016-02-07T14:15:17.574Z,1664
2016-02-07T14:16:17.594Z,1624
2016-02-07T14:17:17.627Z,1564
2016-02-07T14:18:17.632Z,1472
2016-02-07T14:19:17.697Z,1384
2016-02-07T14:20:17.700Z,1340
2016-02-07T14:21:17.733Z,1340
2016-02-07T14:22:17.799Z,1360
2016-02-07T14:23:17.786Z,1372
2016-02-07T14:24:17.915Z,1368
2016-02-07T14:25:17.823Z,1344
2016-02-07T14:26:17.953Z,1316
2016-02-07T14:27:17.893Z,1256
2016-02-07T14:28:18.162Z,1216
2016-02-07T14:29:17.977Z,1188
2016-02-07T14:30:18.027Z,1168
2016-02-07T14:31:18.030Z,1136
2016-02-07T14:32:18.048Z,1072
2016-02-07T14:33:18.223Z,1060
2016-02-07T14:34:18.320Z,1048
2016-02-07T14:35:18.166Z,1044
2016-02-07T14:36:18.153Z,1048
2016-02-07T14:37:18.250Z,1052